Time;durP1;ratioP1;P1;durP2;ratioP2;P2;SDS_P1;SDS_P2;PMS_P1;PMS_P2;Temp;Humidity;BMP_temperature;BMP_pressure;BME280_temperature;BME280_humidity;BME280_pressure;Samples;Min_cycle;Max_cycle;Signal;HPM_P1;HPM_P2
2023/08/29 00:00:20;;;;;;;0.00;0.00;;;14.60;99.90;;;;;;5044515;28;20036;-67
2023/08/29 00:02:48;;;;;;;0.43;0.20;;;14.50;99.90;;;;;;5038426;28;21422;-66
2023/08/29 00:05:13;;;;;;;0.00;0.00;;;14.50;99.90;;;;;;5033355;28;20017;-67
2023/08/29 00:07:39;;;;;;;0.20;0.20;;;14.50;99.90;;;;;;5049088;28;20526;-67
2023/08/29 00:10:06;;;;;;;0.10;0.10;;;14.50;99.90;;;;;;5040587;28;20411;-67
2023/08/29 00:12:32;;;;;;;0.93;0.35;;;14.60;99.90;;;;;;5049911;28;20420;-67
2023/08/29 00:14:59;;;;;;;0.00;0.00;;;14.60;99.90;;;;;;5038043;28;20036;-67
2023/08/29 00:17:26;;;;;;;0.30;0.30;;;14.60;99.90;;;;;;5043785;28;20025;-67
2023/08/29 00:19:52;;;;;;;0.10;0.10;;;14.60;99.90;;;;;;5047506;28;20025;-67
2023/08/29 00:22:18;;;;;;;0.20;0.13;;;14.60;99.90;;;;;;5034595;28;20025;-67
2023/08/29 00:24:44;;;;;;;1.07;0.73;;;14.60;99.90;;;;;;5034306;28;20041;-76
2023/08/29 00:27:13;;;;;;;0.30;0.30;;;14.50;99.90;;;;;;5032723;28;20045;-66
2023/08/29 00:29:38;;;;;;;0.20;0.20;;;14.60;99.90;;;;;;5034916;28;20368;-67
2023/08/29 00:32:23;;;;;;;0.23;0.20;;;14.50;99.90;;;;;;5035177;28;20076;-67
2023/08/29 00:34:49;;;;;;;0.00;0.00;;;14.50;99.90;;;;;;5036502;28;20491;-67
2023/08/29 00:37:15;;;;;;;0.47;0.33;;;14.60;99.90;;;;;;5034962;28;20120;-67
2023/08/29 00:39:41;;;;;;;0.27;0.20;;;14.50;99.90;;;;;;5043183;28;20309;-67
2023/08/29 00:42:06;;;;;;;0.00;0.00;;;14.50;99.90;;;;;;5045270;28;20041;-66
2023/08/29 00:44:32;;;;;;;0.30;0.10;;;14.50;99.90;;;;;;5041799;28;20036;-67
2023/08/29 00:46:58;;;;;;;1.13;1.03;;;14.50;99.90;;;;;;5027104;28;20040;-78
2023/08/29 00:49:26;;;;;;;0.10;0.10;;;14.50;99.90;;;;;;5033347;28;20094;-67
2023/08/29 00:51:53;;;;;;;0.10;0.10;;;14.50;99.90;;;;;;5034264;28;20092;-67
2023/08/29 00:54:20;;;;;;;0.00;0.00;;;14.40;99.90;;;;;;5028762;28;20037;-66
2023/08/29 00:56:47;;;;;;;0.32;0.22;;;14.40;99.90;;;;;;5034283;28;20065;-66
2023/08/29 00:59:14;;;;;;;0.00;0.00;;;14.30;99.90;;;;;;5026577;28;20027;-67
2023/08/29 01:01:39;;;;;;;0.00;0.00;;;14.20;99.90;;;;;;5033842;28;20033;-67
2023/08/29 01:04:05;;;;;;;0.00;0.00;;;14.20;99.90;;;;;;5033841;28;20038;-67
2023/08/29 01:06:32;;;;;;;0.10;0.10;;;14.20;99.90;;;;;;5022482;28;20404;-74
2023/08/29 01:08:59;;;;;;;0.55;0.30;;;14.20;99.90;;;;;;5032809;28;20104;-67
2023/08/29 01:11:43;;;;;;;0.15;0.15;;;14.20;99.90;;;;;;5032425;28;20037;-77
2023/08/29 01:14:21;;;;;;;0.00;0.00;;;14.10;99.90;;;;;;5033468;28;20025;-67
2023/08/29 01:17:03;;;;;;;0.08;0.08;;;14.00;99.90;;;;;;5030241;28;20470;-78
2023/08/29 01:19:30;;;;;;;0.10;0.10;;;14.00;99.90;;;;;;5032380;28;20037;-66
2023/08/29 01:22:04;;;;;;;0.40;0.40;;;14.00;99.90;;;;;;5034159;28;20561;-66
2023/08/29 01:24:46;;;;;;;0.00;0.00;;;14.00;99.90;;;;;;5033027;28;20041;-67
2023/08/29 01:27:13;;;;;;;4.65;1.10;;;14.00;99.90;;;;;;5030373;28;20076;-67
2023/08/29 01:29:40;;;;;;;0.25;0.25;;;14.10;99.90;;;;;;5021194;28;20025;-77
2023/08/29 01:32:06;;;;;;;0.10;0.10;;;14.00;99.90;;;;;;5032338;28;20425;-66
2023/08/29 01:34:32;;;;;;;0.10;0.10;;;14.10;99.90;;;;;;5032780;28;20289;-66
2023/08/29 01:36:58;;;;;;;0.27;0.27;;;14.10;99.90;;;;;;5033862;28;20041;-66
2023/08/29 01:39:24;;;;;;;0.10;0.10;;;14.00;99.90;;;;;;5031737;28;20424;-66
2023/08/29 01:41:51;;;;;;;0.20;0.10;;;14.00;99.90;;;;;;5031504;28;20064;-67
2023/08/29 01:44:16;;;;;;;0.00;0.00;;;13.90;99.90;;;;;;5033510;28;20029;-66
2023/08/29 01:46:42;;;;;;;0.30;0.10;;;13.90;99.90;;;;;;5024018;28;20032;-67
2023/08/29 01:49:08;;;;;;;0.10;0.10;;;13.80;99.90;;;;;;5032613;28;20021;-67
2023/08/29 01:51:34;;;;;;;0.10;0.10;;;13.80;99.90;;;;;;5034502;28;20029;-67
2023/08/29 01:54:00;;;;;;;0.40;0.33;;;13.70;99.90;;;;;;5027993;28;20032;-67
2023/08/29 01:56:29;;;;;;;0.13;0.10;;;13.70;99.90;;;;;;5033811;28;20082;-66
2023/08/29 01:58:56;;;;;;;0.03;0.03;;;13.70;99.90;;;;;;5035341;28;20109;-66
2023/08/29 02:01:21;;;;;;;0.25;0.25;;;13.70;99.90;;;;;;5029387;28;20053;-66
2023/08/29 02:03:47;;;;;;;0.10;0.10;;;13.70;99.90;;;;;;5029214;28;20435;-66
2023/08/29 02:06:14;;;;;;;0.23;0.20;;;13.70;99.90;;;;;;5029260;28;20048;-67
2023/08/29 02:08:41;;;;;;;0.10;0.10;;;13.70;99.90;;;;;;5037663;28;20117;-66
2023/08/29 02:11:07;;;;;;;0.28;0.28;;;13.70;99.90;;;;;;5037672;28;20123;-77
2023/08/29 02:13:33;;;;;;;0.20;0.20;;;13.70;99.90;;;;;;5038344;28;20424;-67
2023/08/29 02:16:02;;;;;;;0.00;0.00;;;13.70;99.90;;;;;;5037581;28;20467;-67
2023/08/29 02:18:28;;;;;;;0.40;0.40;;;13.70;99.90;;;;;;5038086;28;20120;-66
2023/08/29 02:20:54;;;;;;;0.00;0.00;;;13.70;99.90;;;;;;5037186;28;20103;-77
2023/08/29 02:23:20;;;;;;;0.10;0.10;;;13.70;99.90;;;;;;5037616;28;20293;-66
2023/08/29 02:25:46;;;;;;;1.70;0.37;;;13.70;99.90;;;;;;5037038;28;20025;-66
2023/08/29 02:28:12;;;;;;;0.10;0.10;;;13.70;99.90;;;;;;5036407;28;20056;-67
2023/08/29 02:30:38;;;;;;;0.63;0.63;;;13.60;99.90;;;;;;5045038;28;20028;-66
2023/08/29 02:33:04;;;;;;;0.50;0.50;;;13.60;99.90;;;;;;5035579;28;20037;-66
2023/08/29 02:35:29;;;;;;;0.07;0.07;;;13.50;99.90;;;;;;5036076;28;20041;-66
2023/08/29 02:37:55;;;;;;;0.13;0.13;;;13.60;99.90;;;;;;5036855;28;20056;-66
2023/08/29 02:40:22;;;;;;;0.00;0.00;;;13.60;99.90;;;;;;5036877;28;20435;-66
2023/08/29 02:42:48;;;;;;;0.00;0.00;;;13.50;99.90;;;;;;5038616;28;20030;-66
2023/08/29 02:45:13;;;;;;;0.00;0.00;;;13.40;99.90;;;;;;5034469;28;20038;-78
2023/08/29 02:47:39;;;;;;;0.10;0.10;;;13.30;99.90;;;;;;5035341;28;20052;-66
2023/08/29 02:50:06;;;;;;;0.00;0.00;;;13.30;99.90;;;;;;5032326;28;20037;-66
2023/08/29 02:52:32;;;;;;;0.15;0.15;;;13.20;99.90;;;;;;5033524;28;20025;-66
2023/08/29 02:54:58;;;;;;;0.00;0.00;;;13.20;99.90;;;;;;5034153;28;20032;-66
2023/08/29 02:57:24;;;;;;;0.40;0.30;;;13.20;99.90;;;;;;5033490;28;20117;-66
2023/08/29 02:59:49;;;;;;;1.40;0.20;;;13.10;99.90;;;;;;5030304;28;20104;-66
2023/08/29 03:02:15;;;;;;;0.23;0.17;;;13.00;99.90;;;;;;5034287;28;20036;-66
2023/08/29 03:04:42;;;;;;;0.10;0.10;;;12.90;99.90;;;;;;5036573;28;20323;-66
2023/08/29 03:07:08;;;;;;;0.08;0.08;;;12.90;99.90;;;;;;5036004;28;20029;-66
2023/08/29 03:09:33;;;;;;;0.00;0.00;;;12.80;99.90;;;;;;5029122;28;20096;-66
2023/08/29 03:11:59;;;;;;;0.07;0.07;;;12.80;99.90;;;;;;5035622;28;20076;-71
2023/08/29 03:14:26;;;;;;;0.43;0.43;;;12.80;99.90;;;;;;5039635;28;20328;-66
2023/08/29 03:16:52;;;;;;;0.10;0.10;;;12.70;99.90;;;;;;5042513;28;20053;-75
2023/08/29 03:19:18;;;;;;;0.03;0.03;;;12.70;99.90;;;;;;5033187;28;20068;-75
2023/08/29 03:21:44;;;;;;;0.13;0.13;;;12.70;99.90;;;;;;5034824;28;20056;-66
2023/08/29 03:24:09;;;;;;;0.00;0.00;;;12.80;99.90;;;;;;5034813;28;20045;-66
2023/08/29 03:26:35;;;;;;;0.00;0.00;;;12.70;99.90;;;;;;5034427;28;20324;-66
2023/08/29 03:29:01;;;;;;;0.00;0.00;;;12.70;99.90;;;;;;5033317;28;20029;-67
2023/08/29 03:31:26;;;;;;;0.10;0.10;;;12.80;99.90;;;;;;5032499;28;20104;-66
2023/08/29 03:33:52;;;;;;;0.00;0.00;;;12.80;99.90;;;;;;5033831;28;20068;-66
2023/08/29 03:36:18;;;;;;;0.10;0.10;;;12.80;99.90;;;;;;5035923;28;20021;-66
2023/08/29 03:38:43;;;;;;;0.27;0.20;;;12.70;99.90;;;;;;5036430;28;20033;-66
2023/08/29 03:41:09;;;;;;;0.00;0.00;;;12.70;99.90;;;;;;5034917;28;20030;-66
2023/08/29 03:43:36;;;;;;;0.00;0.00;;;12.60;99.90;;;;;;5035129;28;20118;-66
2023/08/29 03:46:05;;;;;;;;;;;12.70;99.90;;;;;;5025479;28;20033;-66
2023/08/29 03:48:32;;;;;;;0.00;0.00;;;12.60;99.90;;;;;;5032144;28;20211;-66
2023/08/29 03:50:58;;;;;;;0.00;0.00;;;12.40;99.90;;;;;;5033190;28;20113;-66
2023/08/29 03:53:24;;;;;;;0.15;0.15;;;12.40;99.90;;;;;;5035788;28;20160;-76
2023/08/29 03:55:50;;;;;;;0.10;0.10;;;12.40;99.90;;;;;;5035036;28;20037;-66
2023/08/29 03:58:16;;;;;;;0.03;0.03;;;12.40;99.90;;;;;;5034972;28;20040;-66
2023/08/29 04:00:42;;;;;;;0.33;0.33;;;12.40;99.90;;;;;;5034112;28;20278;-66
2023/08/29 04:03:08;;;;;;;0.00;0.00;;;12.30;99.90;;;;;;5035832;28;20068;-66
2023/08/29 04:05:37;;;;;;;0.03;0.03;;;12.30;99.90;;;;;;5024445;28;20057;-66
2023/08/29 04:08:05;;;;;;;0.20;0.20;;;12.40;99.90;;;;;;5034483;28;20308;-65
2023/08/29 04:10:36;;;;;;;8.57;0.35;;;12.50;99.90;;;;;;5036094;28;20033;-67
2023/08/29 04:13:02;;;;;;;0.00;0.00;;;12.50;99.90;;;;;;5035641;28;20096;-66
2023/08/29 04:15:27;;;;;;;0.00;0.00;;;12.50;99.90;;;;;;5036093;28;20520;-66
2023/08/29 04:17:53;;;;;;;0.07;0.07;;;12.50;99.90;;;;;;5036096;28;20024;-66
2023/08/29 04:20:19;;;;;;;0.00;0.00;;;12.50;99.90;;;;;;5035045;28;20022;-66
2023/08/29 04:22:45;;;;;;;0.37;0.37;;;12.50;99.90;;;;;;5035011;28;20041;-65
2023/08/29 04:25:11;;;;;;;0.00;0.00;;;12.50;99.90;;;;;;5035197;28;20080;-65
2023/08/29 04:27:38;;;;;;;0.00;0.00;;;12.50;99.90;;;;;;5036093;28;20025;-76
2023/08/29 04:30:04;;;;;;;0.03;0.03;;;12.50;99.90;;;;;;5035360;28;20025;-66
2023/08/29 04:32:34;;;;;;;0.10;0.10;;;12.60;99.90;;;;;;5035627;28;20037;-66
2023/08/29 04:35:00;;;;;;;0.00;0.00;;;12.60;99.90;;;;;;5031983;28;20108;-67
2023/08/29 04:37:26;;;;;;;0.10;0.10;;;12.60;99.90;;;;;;5033381;28;20033;-66
2023/08/29 04:39:51;;;;;;;0.10;0.10;;;12.60;99.90;;;;;;5034508;28;20434;-66
2023/08/29 04:42:17;;;;;;;0.53;0.40;;;12.60;99.90;;;;;;5032979;28;20031;-65
2023/08/29 04:44:43;;;;;;;0.30;0.30;;;12.60;99.90;;;;;;5033107;28;20037;-66
2023/08/29 04:47:09;;;;;;;0.63;0.60;;;12.60;99.90;;;;;;5033974;28;20282;-66
2023/08/29 04:49:35;;;;;;;0.00;0.00;;;12.60;99.90;;;;;;5034789;28;20075;-66
2023/08/29 04:52:01;;;;;;;0.07;0.07;;;12.60;99.90;;;;;;5037329;28;20022;-65
2023/08/29 04:54:26;;;;;;;0.00;0.00;;;12.60;99.90;;;;;;5032218;28;20362;-66
2023/08/29 04:56:52;;;;;;;0.57;0.57;;;12.60;99.90;;;;;;5034331;28;20390;-65
2023/08/29 04:59:18;;;;;;;0.27;0.27;;;12.60;99.90;;;;;;5032835;28;20042;-66
2023/08/29 05:01:44;;;;;;;0.37;0.37;;;12.80;99.90;;;;;;5033327;28;20321;-65
2023/08/29 05:04:10;;;;;;;0.10;0.10;;;12.80;99.90;;;;;;5030639;28;20033;-66
2023/08/29 05:06:36;;;;;;;0.20;0.20;;;12.80;99.90;;;;;;5033386;28;20033;-66
2023/08/29 05:09:03;;;;;;;0.00;0.00;;;12.80;99.90;;;;;;5030222;28;20025;-66
2023/08/29 05:11:28;;;;;;;0.47;0.10;;;12.80;99.90;;;;;;5027324;28;20029;-66
2023/08/29 05:13:55;;;;;;;0.43;0.43;;;12.70;99.90;;;;;;5027730;28;20317;-66
2023/08/29 05:16:21;;;;;;;0.30;0.30;;;12.60;99.90;;;;;;5035064;28;20116;-65
2023/08/29 05:18:46;;;;;;;0.10;0.10;;;12.60;99.90;;;;;;5034175;28;20040;-66
2023/08/29 05:21:12;;;;;;;0.20;0.20;;;12.60;99.90;;;;;;5032433;28;20364;-66
2023/08/29 05:23:37;;;;;;;0.00;0.00;;;12.60;99.90;;;;;;5032731;28;20124;-66
2023/08/29 05:26:04;;;;;;;0.30;0.30;;;12.70;99.90;;;;;;5033958;28;20028;-66
2023/08/29 05:28:30;;;;;;;0.10;0.10;;;12.80;99.90;;;;;;5034854;28;20112;-69
2023/08/29 05:30:55;;;;;;;0.20;0.20;;;12.80;99.90;;;;;;5032400;28;20136;-75
2023/08/29 05:33:21;;;;;;;0.10;0.10;;;12.70;99.90;;;;;;5032304;28;20067;-65
2023/08/29 05:35:47;;;;;;;0.10;0.10;;;12.80;99.90;;;;;;5034097;28;20093;-66
2023/08/29 05:38:12;;;;;;;0.10;0.10;;;12.80;99.90;;;;;;5035426;28;20025;-66
2023/08/29 05:40:38;;;;;;;0.30;0.30;;;12.80;99.90;;;;;;5031120;28;20440;-66
2023/08/29 05:43:04;;;;;;;0.00;0.00;;;12.80;99.90;;;;;;5035367;28;20029;-66
2023/08/29 05:45:30;;;;;;;0.00;0.00;;;12.80;99.90;;;;;;5033747;28;20021;-67
2023/08/29 05:47:56;;;;;;;0.07;0.07;;;12.80;99.90;;;;;;5033241;28;20275;-66
2023/08/29 05:50:21;;;;;;;0.00;0.00;;;12.90;99.90;;;;;;5033902;28;20017;-66
2023/08/29 05:52:47;;;;;;;0.93;0.30;;;12.90;99.90;;;;;;5034463;28;20108;-66
2023/08/29 05:55:13;;;;;;;0.07;0.07;;;12.90;99.90;;;;;;5032026;28;20075;-66
2023/08/29 05:57:39;;;;;;;0.10;0.10;;;13.00;99.90;;;;;;5039506;28;20033;-66
2023/08/29 06:00:07;;;;;;;1.07;0.63;;;13.00;99.90;;;;;;5035098;28;20022;-65
2023/08/29 06:02:33;;;;;;;0.17;0.17;;;13.10;99.90;;;;;;5016979;28;20037;-75
2023/08/29 06:04:58;;;;;;;0.43;0.37;;;13.30;99.90;;;;;;5037941;28;20029;-66
2023/08/29 06:07:24;;;;;;;0.10;0.10;;;13.40;99.90;;;;;;5033390;28;20030;-66
2023/08/29 06:09:51;;;;;;;20.87;0.67;;;13.50;99.90;;;;;;5030957;28;20034;-66
2023/08/29 06:12:16;;;;;;;0.43;0.43;;;13.60;99.90;;;;;;5033143;28;20689;-75
2023/08/29 06:14:42;;;;;;;0.10;0.10;;;13.70;99.90;;;;;;5033936;28;20044;-66
2023/08/29 06:17:08;;;;;;;0.30;0.30;;;13.80;99.90;;;;;;5034950;28;20029;-66
2023/08/29 06:19:33;;;;;;;0.30;0.30;;;13.80;99.90;;;;;;5046014;28;20025;-69
2023/08/29 06:21:59;;;;;;;1.50;0.57;;;13.90;99.90;;;;;;5036968;28;20033;-66
2023/08/29 06:24:25;;;;;;;0.17;0.17;;;14.00;99.90;;;;;;5038990;28;20055;-66
2023/08/29 06:26:50;;;;;;;1.30;0.60;;;14.20;99.90;;;;;;5034096;28;20049;-66
2023/08/29 06:29:16;;;;;;;0.73;0.73;;;14.30;99.90;;;;;;5042210;28;20049;-76
2023/08/29 06:31:42;;;;;;;0.30;0.30;;;14.30;99.90;;;;;;5034610;28;20021;-66
2023/08/29 06:34:08;;;;;;;0.37;0.37;;;14.40;99.90;;;;;;5046553;28;20344;-66
2023/08/29 06:36:34;;;;;;;0.30;0.30;;;14.50;99.90;;;;;;5034564;28;20033;-66
2023/08/29 06:39:00;;;;;;;0.07;0.07;;;14.60;99.90;;;;;;5044300;28;20339;-66
2023/08/29 06:41:26;;;;;;;;;;;14.70;99.90;;;;;;5033867;28;20110;-66
2023/08/29 06:43:52;;;;;;;0.10;0.10;;;14.70;99.90;;;;;;5042154;28;19913;-66
2023/08/29 06:46:17;;;;;;;0.20;0.20;;;14.80;99.90;;;;;;5038756;28;20056;-74
2023/08/29 06:48:43;;;;;;;0.40;0.40;;;14.90;99.90;;;;;;5035542;28;20017;-66
2023/08/29 06:51:10;;;;;;;0.63;0.40;;;15.00;99.90;;;;;;5040078;28;20409;-66
2023/08/29 06:53:35;;;;;;;0.82;0.43;;;15.10;99.90;;;;;;5047180;28;20025;-66
2023/08/29 06:56:01;;;;;;;0.57;0.57;;;15.20;99.90;;;;;;5035222;28;20076;-66
2023/08/29 06:58:27;;;;;;;0.57;0.33;;;15.20;99.90;;;;;;5036661;28;20018;-66
2023/08/29 07:00:53;;;;;;;0.33;0.33;;;15.30;99.90;;;;;;5035499;28;20025;-66
2023/08/29 07:03:19;;;;;;;0.57;0.57;;;15.30;99.90;;;;;;5036038;28;20417;-66
2023/08/29 07:05:45;;;;;;;0.20;0.20;;;15.40;99.90;;;;;;5036592;28;20037;-66
2023/08/29 07:08:11;;;;;;;0.40;0.40;;;15.40;99.90;;;;;;5038793;28;20025;-66
2023/08/29 07:10:37;;;;;;;0.37;0.37;;;15.50;99.90;;;;;;5034260;28;20109;-67
2023/08/29 07:13:06;;;;;;;1.03;0.37;;;15.50;99.90;;;;;;5035822;28;20318;-67
2023/08/29 07:15:31;;;;;;;0.10;0.10;;;15.60;99.90;;;;;;5040072;28;20096;-66
2023/08/29 07:17:57;;;;;;;0.00;0.00;;;15.70;99.90;;;;;;5036321;28;20382;-66
2023/08/29 07:20:23;;;;;;;0.50;0.50;;;15.80;99.90;;;;;;5036352;28;20052;-66
2023/08/29 07:22:48;;;;;;;1.03;0.67;;;15.90;99.90;;;;;;5035928;28;20042;-67
2023/08/29 07:25:15;;;;;;;0.67;0.47;;;16.10;99.90;;;;;;5035654;28;20290;-67
2023/08/29 07:27:41;;;;;;;0.10;0.10;;;16.20;99.90;;;;;;5047960;28;20024;-67
2023/08/29 07:30:07;;;;;;;0.60;0.60;;;16.40;99.90;;;;;;5044127;28;20029;-77
2023/08/29 07:32:33;;;;;;;0.30;0.30;;;16.50;99.90;;;;;;5029808;28;20056;-67
2023/08/29 07:34:59;;;;;;;0.23;0.20;;;16.60;99.90;;;;;;5046860;28;20077;-68
2023/08/29 07:37:25;;;;;;;0.20;0.20;;;16.80;99.90;;;;;;5051335;28;20037;-67
2023/08/29 07:39:50;;;;;;;0.40;0.40;;;17.00;99.90;;;;;;5049162;28;20086;-68
2023/08/29 07:42:19;;;;;;;0.40;0.40;;;17.10;99.90;;;;;;5045905;28;20059;-67
2023/08/29 07:44:45;;;;;;;0.25;0.25;;;17.20;99.90;;;;;;5045415;28;20071;-67
2023/08/29 07:47:10;;;;;;;0.10;0.10;;;17.40;99.90;;;;;;5043265;28;20044;-69
2023/08/29 07:49:36;;;;;;;0.40;0.20;;;17.50;99.90;;;;;;5047256;28;20029;-68
2023/08/29 07:52:02;;;;;;;2.80;0.73;;;17.70;99.90;;;;;;5038780;28;20071;-68
2023/08/29 07:54:28;;;;;;;1.65;0.57;;;17.90;99.90;;;;;;5036457;28;20082;-78
2023/08/29 07:56:53;;;;;;;2.57;0.30;;;18.00;99.90;;;;;;5034167;28;20332;-77
2023/08/29 07:59:20;;;;;;;0.10;0.10;;;18.10;99.90;;;;;;5040229;28;20048;-68
2023/08/29 08:01:46;;;;;;;0.00;0.00;;;18.20;99.90;;;;;;5045871;28;20111;-69
2023/08/29 08:04:12;;;;;;;0.00;0.00;;;18.30;99.90;;;;;;5045845;28;20028;-68
2023/08/29 08:06:38;;;;;;;0.23;0.10;;;18.40;99.90;;;;;;5043925;28;20017;-69
2023/08/29 08:09:04;;;;;;;0.00;0.00;;;18.50;99.90;;;;;;5049502;28;20083;-69
2023/08/29 08:11:30;;;;;;;1.00;0.22;;;18.50;99.90;;;;;;5054231;28;20699;-68
2023/08/29 08:13:56;;;;;;;1.65;1.33;;;18.60;99.90;;;;;;5044547;28;21493;-76
2023/08/29 08:16:22;;;;;;;0.13;0.13;;;18.60;99.90;;;;;;5053394;28;20104;-68
2023/08/29 08:18:47;;;;;;;0.30;0.23;;;18.70;99.90;;;;;;5038943;28;20404;-77
2023/08/29 08:21:13;;;;;;;1.20;0.87;;;18.70;99.90;;;;;;5039554;28;20317;-68
2023/08/29 08:23:39;;;;;;;0.10;0.10;;;18.80;99.90;;;;;;5046520;28;20436;-69
2023/08/29 08:26:04;;;;;;;1.30;0.60;;;18.80;99.90;;;;;;5040324;28;20147;-70
2023/08/29 08:28:30;;;;;;;0.20;0.20;;;18.80;99.90;;;;;;5040978;28;20033;-68
2023/08/29 08:30:56;;;;;;;0.47;0.43;;;18.80;99.90;;;;;;5040063;28;20049;-75
2023/08/29 08:33:24;;;;;;;0.30;0.30;;;18.80;99.90;;;;;;5039329;28;20029;-69
2023/08/29 08:35:50;;;;;;;1.55;0.30;;;18.70;99.90;;;;;;5042424;28;20025;-69
2023/08/29 08:38:15;;;;;;;0.30;0.30;;;18.80;99.90;;;;;;5038819;28;20026;-68
2023/08/29 08:40:41;;;;;;;0.20;0.20;;;18.80;99.90;;;;;;5040308;28;20052;-69
2023/08/29 08:43:09;;;;;;;0.40;0.40;;;18.90;99.90;;;;;;5037011;28;20095;-69
2023/08/29 08:45:36;;;;;;;0.20;0.20;;;19.00;99.90;;;;;;5042551;28;20416;-69
2023/08/29 08:48:03;;;;;;;0.20;0.20;;;19.20;99.90;;;;;;5049472;28;20017;-70
2023/08/29 08:50:29;;;;;;;;;;;19.20;99.90;;;;;;5041771;28;20129;-68
2023/08/29 08:52:56;;;;;;;0.20;0.20;;;19.30;99.90;;;;;;5038740;28;20323;-68
2023/08/29 08:55:22;;;;;;;0.03;0.03;;;19.40;99.90;;;;;;5042465;28;20029;-68
2023/08/29 08:57:50;;;;;;;0.10;0.10;;;19.50;99.90;;;;;;5046471;28;20055;-68
2023/08/29 09:00:16;;;;;;;0.10;0.10;;;19.60;99.90;;;;;;5043829;28;20041;-68
2023/08/29 09:02:44;;;;;;;0.00;0.00;;;19.60;99.90;;;;;;5040966;28;20063;-69
2023/08/29 09:05:10;;;;;;;0.40;0.40;;;19.70;99.90;;;;;;5038305;28;20416;-69
2023/08/29 09:07:39;;;;;;;0.20;0.20;;;19.70;99.90;;;;;;5044266;28;20055;-68
2023/08/29 09:10:07;;;;;;;0.20;0.20;;;19.80;99.90;;;;;;5050761;28;20016;-68
2023/08/29 09:12:33;;;;;;;0.20;0.20;;;19.90;99.90;;;;;;5042432;28;20416;-68
2023/08/29 09:15:04;;;;;;;0.00;0.00;;;20.00;99.90;;;;;;5042412;28;20033;-75
2023/08/29 09:17:29;;;;;;;3.05;0.93;;;20.00;99.90;;;;;;5036768;28;20033;-68
2023/08/29 09:19:58;;;;;;;0.33;0.33;;;20.10;99.90;;;;;;5029914;28;20038;-68
2023/08/29 09:22:24;;;;;;;0.10;0.10;;;20.20;99.90;;;;;;5037791;28;20026;-75
2023/08/29 09:24:51;;;;;;;0.32;0.32;;;20.30;99.90;;;;;;5030893;28;20053;-68
2023/08/29 09:27:17;;;;;;;0.30;0.20;;;20.30;99.90;;;;;;5035185;28;20029;-68
2023/08/29 09:29:43;;;;;;;0.15;0.15;;;20.40;99.90;;;;;;5035319;28;20052;-68
2023/08/29 09:32:13;;;;;;;0.10;0.10;;;20.50;99.90;;;;;;5036259;28;20417;-68
2023/08/29 09:34:39;;;;;;;0.22;0.22;;;20.50;99.90;;;;;;5038000;28;20082;-68
2023/08/29 09:37:05;;;;;;;0.20;0.20;;;20.40;99.90;;;;;;5041474;28;20442;-68
2023/08/29 09:39:31;;;;;;;0.10;0.10;;;20.40;99.90;;;;;;5043214;28;20033;-68
2023/08/29 09:42:08;;;;;;;1.70;0.53;;;20.50;99.90;;;;;;5038098;28;20032;-68
2023/08/29 09:44:39;;;;;;;1.75;0.85;;;20.50;99.90;;;;;;5033945;28;20036;-68
2023/08/29 09:47:06;;;;;;;0.10;0.10;;;20.70;99.90;;;;;;5045824;28;20036;-68
2023/08/29 09:50:01;;;;;;;0.30;0.30;;;20.70;99.90;;;;;;5046650;28;20025;-69
2023/08/29 09:52:28;;;;;;;0.25;0.25;;;20.90;99.90;;;;;;5039237;28;20034;-69
2023/08/29 09:54:56;;;;;;;0.20;0.20;;;20.90;99.90;;;;;;5034206;28;20025;-75
2023/08/29 09:57:24;;;;;;;0.57;0.57;;;21.00;99.90;;;;;;5035029;28;20426;-69
2023/08/29 09:59:52;;;;;;;0.20;0.20;;;21.20;99.90;;;;;;5034643;28;20750;-68
2023/08/29 10:02:20;;;;;;;0.00;0.00;;;21.40;99.90;;;;;;5032660;28;20030;-68
2023/08/29 10:05:03;;;;;;;0.38;0.13;;;21.40;99.90;;;;;;5032503;28;20025;-68
2023/08/29 10:07:43;;;;;;;0.52;0.38;;;21.50;99.90;;;;;;5036706;28;20029;-69
2023/08/29 10:10:12;;;;;;;4.95;0.95;;;21.40;99.90;;;;;;5035179;28;20025;-76
2023/08/29 10:12:39;;;;;;;0.45;0.45;;;21.40;99.90;;;;;;5035016;28;20040;-68
2023/08/29 10:15:05;;;;;;;;;;;21.40;99.90;;;;;;5044762;28;20432;-68
2023/08/29 10:17:34;;;;;;;0.15;0.15;;;21.20;99.90;;;;;;5041671;28;19951;-68
2023/08/29 10:20:04;;;;;;;0.10;0.10;;;20.90;99.90;;;;;;5039676;28;20455;-68
2023/08/29 10:22:30;;;;;;;0.03;0.00;;;20.80;99.90;;;;;;5049509;28;20717;-68
2023/08/29 10:25:01;;;;;;;0.17;0.17;;;20.90;99.90;;;;;;5044790;28;20421;-75
2023/08/29 10:27:26;;;;;;;0.10;0.10;;;20.90;99.90;;;;;;5046373;28;20026;-70
2023/08/29 10:29:52;;;;;;;0.00;0.00;;;21.10;99.90;;;;;;5035065;28;20021;-68
2023/08/29 10:32:19;;;;;;;0.10;0.10;;;21.10;99.90;;;;;;5036750;28;20018;-69
2023/08/29 10:34:44;;;;;;;0.45;0.30;;;21.20;99.90;;;;;;5032234;28;20091;-77
2023/08/29 10:37:20;;;;;;;0.17;0.17;;;21.20;99.90;;;;;;5038104;28;20408;-69
2023/08/29 10:39:46;;;;;;;0.20;0.20;;;21.10;99.90;;;;;;5036806;28;20057;-68
2023/08/29 10:42:13;;;;;;;0.08;0.08;;;21.00;99.90;;;;;;5037106;28;20034;-69
2023/08/29 10:44:41;;;;;;;0.05;0.05;;;20.90;99.90;;;;;;5037506;28;20492;-68
2023/08/29 10:47:14;;;;;;;0.10;0.10;;;20.90;99.90;;;;;;5036683;28;20097;-69
2023/08/29 10:49:44;;;;;;;0.25;0.25;;;20.80;99.90;;;;;;5038213;28;20117;-70
2023/08/29 10:52:10;;;;;;;0.17;0.17;;;20.70;99.90;;;;;;5028055;28;20052;-68
2023/08/29 10:54:36;;;;;;;7.47;0.45;;;20.60;99.90;;;;;;5037826;28;20032;-69
2023/08/29 10:57:28;;;;;;;0.10;0.10;;;20.60;99.90;;;;;;5036142;28;20025;-68
2023/08/29 10:59:55;;;;;;;0.32;0.32;;;20.40;99.90;;;;;;5036786;28;20708;-68
2023/08/29 11:02:31;;;;;;;0.10;0.10;;;20.40;99.90;;;;;;5032143;28;20037;-68
2023/08/29 11:05:03;;;;;;;;;;;20.30;99.90;;;;;;5030436;28;20057;-68
2023/08/29 11:07:29;;;;;;;0.30;0.30;;;20.30;99.90;;;;;;5036878;28;19931;-68
2023/08/29 11:10:14;;;;;;;0.25;0.20;;;20.20;99.90;;;;;;5037061;28;20025;-74
2023/08/29 11:13:12;;;;;;;0.20;0.20;;;20.20;99.90;;;;;;5035448;28;20037;-68
2023/08/29 11:15:50;;;;;;;0.20;0.20;;;20.10;99.90;;;;;;5034598;28;20026;-68
2023/08/29 11:18:29;;;;;;;0.32;0.28;;;20.20;99.90;;;;;;5037098;28;20368;-71
2023/08/29 11:20:55;;;;;;;0.20;0.10;;;20.10;99.90;;;;;;5035848;28;20045;-68
2023/08/29 11:23:25;;;;;;;0.37;0.37;;;20.10;99.90;;;;;;5036604;28;20037;-68
2023/08/29 11:25:51;;;;;;;0.20;0.20;;;20.20;99.90;;;;;;5036519;28;20040;-68
2023/08/29 11:28:17;;;;;;;0.30;0.30;;;20.20;99.90;;;;;;5033840;28;20343;-69
2023/08/29 11:30:47;;;;;;;0.45;0.40;;;20.10;99.90;;;;;;5028481;28;20088;-68
2023/08/29 11:33:14;;;;;;;1.63;0.35;;;20.10;99.90;;;;;;5028922;28;20033;-68
2023/08/29 11:35:40;;;;;;;;;;;20.20;99.90;;;;;;5037249;28;20432;-68
2023/08/29 11:38:06;;;;;;;0.10;0.10;;;20.30;99.90;;;;;;5035892;28;19970;-68
2023/08/29 11:40:32;;;;;;;0.20;0.20;;;20.60;99.90;;;;;;5031200;28;20416;-68
2023/08/29 11:42:59;;;;;;;0.55;0.35;;;21.00;99.90;;;;;;5024802;28;20034;-76
2023/08/29 11:45:30;;;;;;;0.57;0.43;;;21.30;99.90;;;;;;5033421;28;20446;-69
2023/08/29 11:47:58;;;;;;;0.32;0.32;;;21.50;99.90;;;;;;5028989;28;20473;-68
2023/08/29 11:50:24;;;;;;;7.68;0.43;;;21.40;99.90;;;;;;5037987;28;20033;-75
2023/08/29 11:52:50;;;;;;;0.47;0.33;;;21.30;99.90;;;;;;5034985;28;20060;-68
2023/08/29 11:55:16;;;;;;;0.37;0.37;;;21.30;99.90;;;;;;5049172;28;20408;-68
2023/08/29 11:57:45;;;;;;;4.32;0.50;;;21.20;99.90;;;;;;5037168;28;20156;-68
2023/08/29 12:00:16;;;;;;;0.43;0.30;;;21.10;99.90;;;;;;5030607;28;20040;-69
2023/08/29 12:02:42;;;;;;;0.88;0.82;;;21.00;99.90;;;;;;5035759;28;20036;-68
2023/08/29 12:05:10;;;;;;;0.50;0.47;;;20.90;99.90;;;;;;5033493;28;20029;-68
2023/08/29 12:07:36;;;;;;;0.45;0.45;;;20.80;99.90;;;;;;5035960;28;20316;-68
2023/08/29 12:10:14;;;;;;;0.63;0.52;;;20.80;99.90;;;;;;5034690;28;20351;-68
2023/08/29 12:12:40;;;;;;;0.75;0.57;;;20.70;99.90;;;;;;5028542;28;20025;-69
2023/08/29 12:15:17;;;;;;;0.68;0.63;;;20.70;99.90;;;;;;5036145;28;20105;-69
2023/08/29 12:17:46;;;;;;;0.50;0.50;;;20.70;99.90;;;;;;5035606;28;20033;-68
2023/08/29 12:20:12;;;;;;;0.55;0.55;;;20.80;99.90;;;;;;5035222;28;20375;-68
2023/08/29 12:22:46;;;;;;;2.70;0.77;;;20.90;99.90;;;;;;5039493;28;20041;-69
2023/08/29 12:25:11;;;;;;;1.20;0.60;;;20.90;99.90;;;;;;5034829;28;20129;-68
2023/08/29 12:27:37;;;;;;;0.33;0.33;;;20.90;99.90;;;;;;5034932;28;20100;-68
2023/08/29 12:30:04;;;;;;;0.40;0.40;;;21.10;99.90;;;;;;5034908;28;20025;-68
2023/08/29 12:32:30;;;;;;;;;;;21.30;99.90;;;;;;5040514;28;20022;-68
2023/08/29 12:34:56;;;;;;;0.43;0.43;;;21.60;99.90;;;;;;5033968;28;20213;-76
2023/08/29 12:37:22;;;;;;;1.38;1.00;;;21.70;99.90;;;;;;5036386;28;20104;-68
2023/08/29 12:39:48;;;;;;;0.68;0.68;;;21.90;99.90;;;;;;5035503;28;20120;-68
2023/08/29 12:42:13;;;;;;;0.25;0.25;;;22.10;99.90;;;;;;5033118;28;20084;-68
2023/08/29 12:44:39;;;;;;;0.83;0.73;;;22.10;99.90;;;;;;5041505;28;20024;-68
2023/08/29 12:47:05;;;;;;;0.47;0.40;;;22.00;99.90;;;;;;5048572;28;20021;-69